Time;durP1;ratioP1;P1;durP2;ratioP2;P2;SDS_P1;SDS_P2;PMS_P1;PMS_P2;Temp;Humidity;BMP_temperature;BMP_pressure;BME280_temperature;BME280_humidity;BME280_pressure;Samples;Min_cycle;Max_cycle;Signal;HPM_P1;HPM_P2
2023/09/26 00:01:41;;;;;;;0.20;0.20;;;;;;;11.22;100.00;102044.16;5116533;28;20028;-41
2023/09/26 00:04:07;;;;;;;0.10;0.10;;;;;;;11.26;100.00;102036.66;5116666;28;20023;-42
2023/09/26 00:06:32;;;;;;;0.20;0.20;;;;;;;11.34;100.00;102035.28;5115414;28;20016;-46
2023/09/26 00:08:58;;;;;;;0.20;0.20;;;;;;;11.37;100.00;102029.38;5116493;28;20387;-44
2023/09/26 00:11:23;;;;;;;0.20;0.20;;;;;;;11.41;100.00;102026.13;5116077;28;20019;-41
2023/09/26 00:13:49;;;;;;;0.20;0.20;;;;;;;11.38;100.00;102035.44;5115326;28;20374;-41
2023/09/26 00:16:14;;;;;;;0.10;0.10;;;;;;;11.36;100.00;102025.94;5116018;28;20035;-41
2023/09/26 00:18:42;;;;;;;0.20;0.20;;;;;;;11.37;100.00;102034.56;5116137;28;20023;-45
2023/09/26 00:21:13;;;;;;;0.10;0.10;;;;;;;11.35;100.00;102031.91;5115594;28;20027;-43
2023/09/26 00:23:38;;;;;;;0.20;0.20;;;;;;;11.25;100.00;102039.16;5116328;28;20028;-40
2023/09/26 00:26:07;;;;;;;0.20;0.20;;;;;;;11.20;100.00;102032.06;5115256;28;20058;-41
2023/09/26 00:28:32;;;;;;;0.10;0.10;;;;;;;11.18;100.00;102032.81;5115724;28;20023;-40
2023/09/26 00:31:03;;;;;;;0.20;0.20;;;;;;;11.13;100.00;102031.72;5116146;28;20080;-46
2023/09/26 00:33:28;;;;;;;0.10;0.10;;;;;;;11.10;100.00;102035.03;5114864;28;20479;-40
2023/09/26 00:35:54;;;;;;;0.20;0.20;;;;;;;11.07;100.00;102029.75;5115855;28;20031;-40
2023/09/26 00:38:19;;;;;;;0.10;0.10;;;;;;;10.97;100.00;102030.13;5115559;28;20012;-42
2023/09/26 00:40:44;;;;;;;0.15;0.15;;;;;;;10.96;100.00;102038.69;5114952;28;20032;-41
2023/09/26 00:43:10;;;;;;;0.10;0.10;;;;;;;10.93;100.00;102030.81;5115568;28;20028;-45
2023/09/26 00:45:36;;;;;;;0.10;0.10;;;;;;;10.95;100.00;102040.38;5115560;28;20024;-44
2023/09/26 00:48:05;;;;;;;0.20;0.20;;;;;;;10.96;100.00;102034.41;5115118;28;20019;-42
2023/09/26 00:50:31;;;;;;;0.10;0.10;;;;;;;10.86;100.00;102030.50;5115516;28;20375;-41
2023/09/26 00:52:57;;;;;;;0.10;0.10;;;;;;;10.94;100.00;102028.28;5097262;28;20053;-41
2023/09/26 00:55:24;;;;;;;0.10;0.10;;;;;;;10.93;100.00;102035.97;5114386;28;20051;-45
2023/09/26 00:57:49;;;;;;;0.10;0.10;;;;;;;10.89;100.00;102028.91;5115254;28;20032;-41
2023/09/26 01:00:19;;;;;;;0.20;0.20;;;;;;;10.85;100.00;102025.28;5115263;28;20050;-45
2023/09/26 01:02:45;;;;;;;0.17;0.17;;;;;;;10.85;100.00;102018.41;5114190;28;20401;-44
2023/09/26 01:05:11;;;;;;;0.20;0.20;;;;;;;10.80;100.00;102022.47;5115379;28;20099;-41
2023/09/26 01:07:38;;;;;;;0.20;0.20;;;;;;;10.81;100.00;102019.09;5115139;28;20024;-41
2023/09/26 01:10:03;;;;;;;0.10;0.10;;;;;;;10.80;100.00;102017.31;5114350;28;20103;-41
2023/09/26 01:12:29;;;;;;;0.10;0.10;;;;;;;10.74;100.00;102006.72;5114697;28;20059;-41
2023/09/26 01:14:55;;;;;;;0.10;0.10;;;;;;;10.74;100.00;102009.28;5115116;28;20530;-43
2023/09/26 01:17:20;;;;;;;0.20;0.20;;;;;;;10.73;100.00;101999.81;5113972;28;20023;-45
2023/09/26 01:19:45;;;;;;;0.20;0.20;;;;;;;10.79;100.00;102002.66;5115258;28;20119;-40
2023/09/26 01:22:16;;;;;;;0.10;0.10;;;;;;;10.76;100.00;102006.81;5114149;28;20152;-43
2023/09/26 01:24:41;;;;;;;0.20;0.20;;;;;;;10.78;100.00;102021.53;5114977;28;20110;-41
2023/09/26 01:27:07;;;;;;;0.20;0.20;;;;;;;10.85;100.00;102023.56;5114866;28;20149;-41
2023/09/26 01:29:32;;;;;;;0.20;0.20;;;;;;;10.76;100.00;102017.13;5113890;28;20031;-43
2023/09/26 01:31:57;;;;;;;0.20;0.20;;;;;;;10.74;100.00;102016.16;5114930;28;20065;-42
2023/09/26 01:34:25;;;;;;;0.20;0.20;;;;;;;10.63;100.00;102031.13;5114406;28;20034;-41
2023/09/26 01:36:50;;;;;;;;;;;;;;;10.84;100.00;102024.38;5114328;28;20023;-41
2023/09/26 01:39:16;;;;;;;0.20;0.20;;;;;;;10.63;100.00;102011.38;5114396;28;19935;-40
2023/09/26 01:41:41;;;;;;;0.20;0.20;;;;;;;10.60;100.00;102021.53;5114456;28;20281;-40
2023/09/26 01:44:06;;;;;;;0.10;0.10;;;;;;;10.60;100.00;102018.97;5113984;28;20106;-43
2023/09/26 01:46:32;;;;;;;0.20;0.20;;;;;;;10.65;100.00;102019.16;5114357;28;20031;-42
2023/09/26 01:48:57;;;;;;;0.20;0.20;;;;;;;10.65;100.00;102011.44;5114509;28;20428;-44
2023/09/26 01:51:23;;;;;;;0.13;0.13;;;;;;;10.66;100.00;102015.78;5113443;28;20027;-42
2023/09/26 01:53:48;;;;;;;0.20;0.20;;;;;;;10.66;100.00;102014.06;5114380;28;20493;-41
2023/09/26 01:56:13;;;;;;;0.20;0.20;;;;;;;10.67;100.00;102009.81;5113748;28;20040;-44
2023/09/26 01:58:39;;;;;;;0.10;0.10;;;;;;;10.74;100.00;102011.00;5113291;28;20471;-41
2023/09/26 02:01:04;;;;;;;0.17;0.17;;;;;;;10.68;100.00;102007.31;5114252;28;20023;-44
2023/09/26 02:03:30;;;;;;;0.20;0.20;;;;;;;10.71;100.00;102009.16;5113855;28;20125;-43
2023/09/26 02:05:58;;;;;;;0.20;0.20;;;;;;;10.66;100.00;102001.19;5113401;28;20023;-42
2023/09/26 02:08:23;;;;;;;0.10;0.10;;;;;;;10.67;100.00;102007.25;5113813;28;20033;-40
2023/09/26 02:10:48;;;;;;;0.10;0.10;;;;;;;10.67;100.00;102002.09;5114013;28;20115;-41
2023/09/26 02:13:14;;;;;;;0.10;0.10;;;;;;;10.65;100.00;102002.03;5112402;28;20022;-42
2023/09/26 02:15:39;;;;;;;0.20;0.20;;;;;;;10.51;100.00;102000.47;5113616;28;20024;-44
2023/09/26 02:18:05;;;;;;;0.10;0.10;;;;;;;10.49;100.00;101997.81;5113842;28;20027;-41
2023/09/26 02:20:31;;;;;;;0.10;0.10;;;;;;;10.50;100.00;102004.72;5112782;28;20047;-41
2023/09/26 02:22:57;;;;;;;0.10;0.10;;;;;;;10.52;100.00;101991.91;5113807;28;20073;-41
2023/09/26 02:25:23;;;;;;;0.10;0.10;;;;;;;10.54;100.00;101996.31;5112627;28;20444;-40
2023/09/26 02:27:49;;;;;;;0.20;0.20;;;;;;;10.52;100.00;102000.53;5113919;28;20072;-41
2023/09/26 02:30:17;;;;;;;0.17;0.17;;;;;;;10.51;100.00;101985.88;5113594;28;20027;-41
2023/09/26 02:32:42;;;;;;;0.10;0.10;;;;;;;10.40;100.00;101991.34;5112890;28;20437;-45
2023/09/26 02:35:11;;;;;;;0.10;0.10;;;;;;;10.33;100.00;101997.84;5113600;28;20374;-44
2023/09/26 02:37:36;;;;;;;0.10;0.10;;;;;;;10.33;100.00;101997.84;5113347;28;20035;-43
2023/09/26 02:40:05;;;;;;;0.20;0.20;;;;;;;10.29;100.00;101999.38;5112711;28;20030;-42
2023/09/26 02:42:32;;;;;;;0.10;0.10;;;;;;;10.33;100.00;101995.28;5113079;28;20394;-41
2023/09/26 02:44:57;;;;;;;0.20;0.20;;;;;;;10.32;100.00;101985.78;5113608;28;20100;-41
2023/09/26 02:47:23;;;;;;;0.10;0.10;;;;;;;10.34;100.00;101986.72;5112351;28;20149;-42
2023/09/26 02:49:48;;;;;;;0.10;0.10;;;;;;;10.34;100.00;101979.88;5113335;28;20023;-43
2023/09/26 02:52:13;;;;;;;0.20;0.20;;;;;;;10.43;100.00;101971.75;5113000;28;20036;-44
2023/09/26 02:54:38;;;;;;;0.20;0.20;;;;;;;10.45;100.00;101970.13;5112766;28;20073;-44
2023/09/26 02:57:04;;;;;;;0.13;0.13;;;;;;;10.44;100.00;101967.47;5113465;28;20122;-45
2023/09/26 02:59:29;;;;;;;0.20;0.20;;;;;;;10.40;100.00;101966.44;5113102;28;20451;-44
2023/09/26 03:01:55;;;;;;;0.20;0.20;;;;;;;10.40;100.00;101965.56;5112744;28;20031;-44
2023/09/26 03:04:20;;;;;;;0.10;0.10;;;;;;;10.38;100.00;101955.19;5112897;28;20079;-41
2023/09/26 03:06:45;;;;;;;0.20;0.20;;;;;;;10.40;100.00;101950.97;5113109;28;20084;-44
2023/09/26 03:09:11;;;;;;;0.10;0.10;;;;;;;10.39;100.00;101946.63;5112792;28;20157;-41
2023/09/26 03:11:36;;;;;;;0.20;0.20;;;;;;;10.37;100.00;101945.69;5113220;28;20019;-41
2023/09/26 03:14:01;;;;;;;0.20;0.20;;;;;;;10.39;100.00;101949.19;5113262;28;20027;-41
2023/09/26 03:16:26;;;;;;;0.20;0.20;;;;;;;10.35;100.00;101947.25;5112145;28;20070;-41
2023/09/26 03:18:57;;;;;;;0.10;0.10;;;;;;;10.18;100.00;101962.78;5113232;28;20020;-42
2023/09/26 03:21:24;;;;;;;0.20;0.20;;;;;;;10.23;100.00;101962.13;5112808;28;20035;-41
2023/09/26 03:23:50;;;;;;;0.20;0.20;;;;;;;10.25;100.00;101963.09;5112430;28;20023;-42
2023/09/26 03:26:15;;;;;;;0.20;0.20;;;;;;;10.26;100.00;101949.41;5115953;28;20038;-41
2023/09/26 03:28:41;;;;;;;0.10;0.10;;;;;;;10.26;100.00;101947.69;5116587;28;20028;-40
2023/09/26 03:31:11;;;;;;;0.20;0.20;;;;;;;10.28;100.00;101956.38;5117232;28;20020;-42
2023/09/26 03:33:36;;;;;;;0.20;0.20;;;;;;;10.13;100.00;101951.34;5116907;28;20028;-40
2023/09/26 03:36:03;;;;;;;0.20;0.20;;;;;;;10.11;100.00;101955.56;5116236;28;20030;-42
2023/09/26 03:38:29;;;;;;;0.20;0.20;;;;;;;10.07;100.00;101960.47;5116908;28;20027;-41
2023/09/26 03:41:02;;;;;;;0.20;0.20;;;;;;;9.99;100.00;101957.53;5117101;28;20019;-40
2023/09/26 03:43:28;;;;;;;0.20;0.20;;;;;;;10.07;100.00;101955.31;5115770;28;20095;-42
2023/09/26 03:46:07;;;;;;;0.20;0.20;;;;;;;10.06;100.00;101954.47;5116954;28;20019;-41
2023/09/26 03:48:33;;;;;;;0.20;0.20;;;;;;;10.12;100.00;101961.59;5116402;28;20114;-41
2023/09/26 03:51:07;;;;;;;0.20;0.20;;;;;;;10.02;100.00;101952.53;5116120;28;20037;-43
2023/09/26 03:53:33;;;;;;;0.13;0.13;;;;;;;10.00;100.00;101951.56;5116526;28;20107;-42
2023/09/26 03:55:58;;;;;;;0.20;0.20;;;;;;;10.04;100.00;101951.81;5116647;28;20098;-43
2023/09/26 03:58:23;;;;;;;0.13;0.13;;;;;;;9.99;100.00;101942.06;5115829;28;20056;-40
2023/09/26 04:00:48;;;;;;;0.20;0.20;;;;;;;9.96;100.00;101947.09;5116556;28;20024;-42
2023/09/26 04:03:14;;;;;;;0.20;0.20;;;;;;;10.02;100.00;101939.66;5116030;28;20030;-41
2023/09/26 04:05:46;;;;;;;0.20;0.20;;;;;;;10.00;100.00;101941.28;5115825;28;20024;-40
2023/09/26 04:08:14;;;;;;;0.20;0.20;;;;;;;9.91;100.00;101944.25;5116599;28;20016;-44
2023/09/26 04:10:39;;;;;;;0.20;0.20;;;;;;;9.82;100.00;101949.84;5116382;28;20027;-41
2023/09/26 04:13:05;;;;;;;0.20;0.20;;;;;;;9.84;100.00;101945.66;5115680;28;20149;-42
2023/09/26 04:15:31;;;;;;;0.20;0.20;;;;;;;9.85;100.00;101944.84;5115972;28;20028;-41
2023/09/26 04:17:56;;;;;;;0.20;0.20;;;;;;;9.82;100.00;101943.81;5115723;28;20051;-42
2023/09/26 04:20:22;;;;;;;0.20;0.20;;;;;;;9.81;100.00;101937.78;5115989;28;20012;-42
2023/09/26 04:22:48;;;;;;;0.20;0.20;;;;;;;9.76;100.00;101939.25;5116217;28;20023;-43
2023/09/26 04:25:14;;;;;;;0.20;0.20;;;;;;;9.79;100.00;101936.81;5115028;28;20088;-45
2023/09/26 04:27:39;;;;;;;0.10;0.10;;;;;;;9.82;100.00;101930.94;5116116;28;20026;-43
2023/09/26 04:30:07;;;;;;;0.20;0.20;;;;;;;9.84;100.00;101927.63;5115977;28;20429;-42
2023/09/26 04:32:32;;;;;;;0.20;0.20;;;;;;;9.89;100.00;101925.31;5114809;28;20097;-41
2023/09/26 04:34:57;;;;;;;0.10;0.10;;;;;;;9.90;100.00;101916.75;5116117;28;20027;-44
2023/09/26 04:37:23;;;;;;;0.20;0.20;;;;;;;9.88;100.00;101916.66;5115007;28;20024;-41
2023/09/26 04:39:48;;;;;;;0.15;0.15;;;;;;;9.83;100.00;101912.97;5115117;28;20024;-40
2023/09/26 04:42:13;;;;;;;0.20;0.20;;;;;;;9.84;100.00;101922.47;5115407;28;20072;-43
2023/09/26 04:44:39;;;;;;;0.20;0.20;;;;;;;9.84;100.00;101911.31;5115579;28;20562;-45
2023/09/26 04:47:04;;;;;;;0.20;0.20;;;;;;;9.86;100.00;101912.25;5115155;28;20026;-43
2023/09/26 04:49:29;;;;;;;0.20;0.20;;;;;;;9.81;100.00;101912.03;5115355;28;20028;-43
2023/09/26 04:51:55;;;;;;;0.20;0.20;;;;;;;9.84;100.00;101914.75;5115798;28;20120;-43
2023/09/26 04:54:20;;;;;;;0.20;0.20;;;;;;;9.85;100.00;101910.47;5114364;28;20027;-41
2023/09/26 04:56:46;;;;;;;0.20;0.20;;;;;;;9.84;100.00;101904.47;5115361;28;20506;-42
2023/09/26 04:59:12;;;;;;;0.20;0.20;;;;;;;9.83;100.00;101905.25;5115054;28;20070;-42
2023/09/26 05:01:37;;;;;;;0.15;0.15;;;;;;;9.79;100.00;101908.50;5114785;28;20393;-44
2023/09/26 05:04:03;;;;;;;0.10;0.10;;;;;;;9.86;100.00;101908.00;5115259;28;20062;-42
2023/09/26 05:06:29;;;;;;;0.20;0.20;;;;;;;9.81;100.00;101896.59;5115031;28;20371;-42
2023/09/26 05:08:54;;;;;;;0.10;0.10;;;;;;;9.85;100.00;101900.19;5114578;28;20539;-42
2023/09/26 05:11:20;;;;;;;0.20;0.20;;;;;;;9.89;100.00;101908.16;5114966;28;20023;-43
2023/09/26 05:13:45;;;;;;;0.20;0.20;;;;;;;9.85;100.00;101913.06;5115047;28;20464;-40
2023/09/26 05:16:13;;;;;;;0.20;0.20;;;;;;;9.86;100.00;101909.69;5114216;28;20068;-40
2023/09/26 05:18:39;;;;;;;0.20;0.20;;;;;;;9.78;100.00;101911.88;5115064;28;20046;-40
2023/09/26 05:21:08;;;;;;;0.20;0.20;;;;;;;9.72;100.00;101916.72;5115058;28;20441;-44
2023/09/26 05:23:33;;;;;;;0.20;0.20;;;;;;;9.70;100.00;101915.75;5113984;28;20063;-41
2023/09/26 05:26:06;;;;;;;0.20;0.20;;;;;;;9.79;100.00;101908.50;5114961;28;20043;-40
2023/09/26 05:28:31;;;;;;;0.20;0.20;;;;;;;9.79;100.00;101908.50;5113774;28;20502;-40
2023/09/26 05:30:56;;;;;;;0.20;0.20;;;;;;;9.82;100.00;101907.75;5114909;28;20348;-41
2023/09/26 05:33:21;;;;;;;0.20;0.20;;;;;;;9.84;100.00;101913.88;5114619;28;20375;-40
2023/09/26 05:35:47;;;;;;;0.20;0.20;;;;;;;9.91;100.00;101913.38;5113928;28;20026;-41
2023/09/26 05:38:12;;;;;;;0.20;0.20;;;;;;;9.95;100.00;101915.28;5114424;28;20023;-40
2023/09/26 05:40:37;;;;;;;0.20;0.20;;;;;;;10.03;100.00;101910.50;5114674;28;20463;-44
2023/09/26 05:43:03;;;;;;;0.10;0.10;;;;;;;10.06;100.00;101910.66;5113619;28;20035;-41
2023/09/26 05:45:28;;;;;;;0.20;0.20;;;;;;;10.09;100.00;101913.38;5114355;28;20047;-41
2023/09/26 05:47:54;;;;;;;0.20;0.20;;;;;;;10.10;100.00;101915.16;5114190;28;20028;-42
2023/09/26 05:50:19;;;;;;;0.20;0.20;;;;;;;10.14;100.00;101922.22;5112779;28;20060;-42
2023/09/26 05:52:44;;;;;;;0.20;0.20;;;;;;;10.14;100.00;101921.34;5114465;28;20024;-41
2023/09/26 05:55:10;;;;;;;0.13;0.13;;;;;;;10.18;100.00;101921.56;5114344;28;20011;-43
2023/09/26 05:57:35;;;;;;;0.20;0.20;;;;;;;10.24;100.00;101912.34;5112871;28;20048;-42
2023/09/26 06:00:05;;;;;;;0.20;0.20;;;;;;;10.29;100.00;101926.34;5114005;28;20035;-44
2023/09/26 06:02:30;;;;;;;0.20;0.20;;;;;;;10.34;100.00;101915.47;5113841;28;20069;-41
2023/09/26 06:04:58;;;;;;;0.10;0.10;;;;;;;10.41;100.00;101926.97;5113298;28;20023;-43
2023/09/26 06:07:23;;;;;;;0.20;0.20;;;;;;;10.49;100.00;101925.63;5114003;28;20050;-43
2023/09/26 06:09:49;;;;;;;0.10;0.10;;;;;;;10.49;100.00;101920.47;5114270;28;20464;-41
2023/09/26 06:12:14;;;;;;;0.20;0.20;;;;;;;10.58;100.00;101925.19;5112916;28;20024;-40
2023/09/26 06:14:39;;;;;;;0.15;0.15;;;;;;;10.64;100.00;101922.91;5113884;28;20367;-43
2023/09/26 06:17:04;;;;;;;0.20;0.20;;;;;;;10.70;100.00;101919.72;5114052;28;20031;-43
2023/09/26 06:19:30;;;;;;;0.10;0.10;;;;;;;10.79;100.00;101917.56;5113000;28;20028;-42
2023/09/26 06:21:55;;;;;;;0.20;0.20;;;;;;;10.86;100.00;101922.19;5113891;28;20489;-40
2023/09/26 06:24:20;;;;;;;0.20;0.20;;;;;;;10.94;100.00;101914.81;5113597;28;20023;-41
2023/09/26 06:26:46;;;;;;;0.20;0.20;;;;;;;10.98;100.00;101914.13;5113138;28;20023;-43
2023/09/26 06:29:12;;;;;;;0.10;0.10;;;;;;;11.03;100.00;101904.88;5113241;28;20016;-40
2023/09/26 06:31:40;;;;;;;0.10;0.10;;;;;;;11.08;100.00;101910.28;5113016;28;20026;-44
2023/09/26 06:34:05;;;;;;;0.10;0.10;;;;;;;11.14;100.00;101907.97;5113541;28;20502;-42
2023/09/26 06:36:31;;;;;;;0.10;0.10;;;;;;;11.19;100.00;101901.31;5113226;28;20031;-43
2023/09/26 06:38:57;;;;;;;0.10;0.10;;;;;;;11.22;100.00;101907.41;5112881;28;20027;-41
2023/09/26 06:41:23;;;;;;;0.15;0.15;;;;;;;11.28;100.00;101907.69;5113359;28;20023;-41
2023/09/26 06:43:48;;;;;;;0.20;0.20;;;;;;;11.31;100.00;101907.81;5113294;28;20374;-40
2023/09/26 06:46:13;;;;;;;0.10;0.10;;;;;;;11.35;100.00;101912.31;5112517;28;20031;-40
2023/09/26 06:48:39;;;;;;;0.20;0.20;;;;;;;11.39;100.00;101909.03;5113532;28;20015;-43
2023/09/26 06:51:05;;;;;;;0.13;0.13;;;;;;;11.44;100.00;101909.22;5113478;28;20023;-43
2023/09/26 06:53:31;;;;;;;0.10;0.10;;;;;;;11.45;100.00;101919.63;5112129;28;20467;-41
2023/09/26 06:56:05;;;;;;;0.20;0.20;;;;;;;11.50;100.00;101912.97;5112972;28;20038;-42
2023/09/26 06:58:31;;;;;;;0.10;0.10;;;;;;;11.58;100.00;101914.97;5113225;28;20020;-42
2023/09/26 07:00:56;;;;;;;0.10;0.10;;;;;;;11.63;100.00;101918.63;5112082;28;20103;-41
2023/09/26 07:03:22;;;;;;;0.20;0.20;;;;;;;11.67;100.00;101917.94;5113104;28;20028;-43
2023/09/26 07:05:47;;;;;;;0.20;0.20;;;;;;;11.75;100.00;101916.59;5113303;28;20020;-42
2023/09/26 07:08:14;;;;;;;0.10;0.10;;;;;;;11.84;100.00;101922.13;5111989;28;20016;-40
2023/09/26 07:10:39;;;;;;;0.20;0.20;;;;;;;11.86;100.00;101923.09;5113267;28;20042;-40
2023/09/26 07:13:05;;;;;;;0.10;0.10;;;;;;;11.91;100.00;101925.84;5113412;28;20371;-40
2023/09/26 07:15:31;;;;;;;0.20;0.20;;;;;;;11.98;100.00;101921.84;5112301;28;20635;-40
2023/09/26 07:17:58;;;;;;;0.20;0.20;;;;;;;12.04;100.00;101922.09;5113304;28;20027;-40
2023/09/26 07:20:26;;;;;;;0.10;0.10;;;;;;;12.16;100.00;101932.03;5112812;28;20136;-40
2023/09/26 07:22:52;;;;;;;0.20;0.20;;;;;;;12.33;100.00;101924.97;5112173;28;20031;-40
2023/09/26 07:25:17;;;;;;;0.17;0.17;;;;;;;12.39;100.00;101917.44;5112650;28;20032;-40
2023/09/26 07:27:42;;;;;;;0.20;0.20;;;;;;;12.49;100.00;101917.00;5112905;28;20031;-42
2023/09/26 07:30:11;;;;;;;0.20;0.20;;;;;;;12.57;100.00;101919.00;5112243;28;20024;-40
2023/09/26 07:32:36;;;;;;;0.10;0.10;;;;;;;12.65;100.00;101920.16;5113150;28;20043;-40
2023/09/26 07:35:03;;;;;;;0.10;0.10;;;;;;;12.74;100.00;101930.00;5112100;28;20032;-40
2023/09/26 07:37:28;;;;;;;0.10;0.10;;;;;;;12.81;100.00;101927.69;5112653;28;20020;-40
2023/09/26 07:39:54;;;;;;;0.10;0.10;;;;;;;12.89;100.00;101927.13;5112814;28;20058;-40
2023/09/26 07:42:19;;;;;;;0.20;0.20;;;;;;;12.94;100.00;101926.44;5111900;28;20023;-40
2023/09/26 07:44:45;;;;;;;0.10;0.10;;;;;;;13.03;100.00;101931.09;5112975;28;20035;-40
2023/09/26 07:47:10;;;;;;;0.10;0.10;;;;;;;13.21;100.00;101927.38;5112946;28;20168;-40
2023/09/26 07:49:35;;;;;;;0.10;0.10;;;;;;;13.28;100.00;101924.22;5111737;28;20027;-40
2023/09/26 07:52:01;;;;;;;0.10;0.10;;;;;;;13.44;100.00;101929.16;5112815;28;20023;-42
2023/09/26 07:54:26;;;;;;;0.10;0.10;;;;;;;13.76;100.00;101931.97;5112344;28;20027;-40
2023/09/26 07:56:51;;;;;;;0.10;0.10;;;;;;;13.81;100.00;101917.47;5111874;28;20467;-40
2023/09/26 07:59:16;;;;;;;0.10;0.10;;;;;;;13.93;100.00;101910.91;5112502;28;20028;-40
2023/09/26 08:01:42;;;;;;;0.10;0.10;;;;;;;14.13;100.00;101920.19;5112638;28;20016;-43
2023/09/26 08:04:07;;;;;;;0.10;0.10;;;;;;;14.15;100.00;101921.16;5111900;28;20462;-41
2023/09/26 08:06:33;;;;;;;0.10;0.10;;;;;;;14.31;100.00;101921.63;5112402;28;20028;-41
2023/09/26 08:08:59;;;;;;;0.10;0.10;;;;;;;14.40;100.00;101921.91;5112622;28;20020;-43
2023/09/26 08:11:27;;;;;;;0.10;0.10;;;;;;;14.58;100.00;101918.13;5111506;28;20028;-43
2023/09/26 08:13:54;;;;;;;0.10;0.10;;;;;;;14.79;100.00;101923.09;5116221;28;20052;-42
2023/09/26 08:16:20;;;;;;;0.20;0.20;;;;;;;14.95;100.00;101914.03;5116189;28;20034;-41
2023/09/26 08:18:45;;;;;;;0.10;0.10;;;;;;;15.06;100.00;101903.97;5115307;28;20020;-43
2023/09/26 08:21:11;;;;;;;0.10;0.10;;;;;;;15.07;100.00;101903.16;5116296;28;20037;-43
2023/09/26 08:23:36;;;;;;;0.10;0.10;;;;;;;15.21;100.00;101893.13;5115969;28;20023;-43
2023/09/26 08:26:06;;;;;;;0.10;0.10;;;;;;;15.22;100.00;101900.06;5115275;28;20489;-41
2023/09/26 08:28:32;;;;;;;0.10;0.10;;;;;;;15.37;100.00;101904.81;5115945;28;20031;-43
2023/09/26 08:31:04;;;;;;;0.10;0.10;;;;;;;15.42;100.00;101916.22;5116135;28;20060;-41
2023/09/26 08:33:29;;;;;;;0.05;0.05;;;;;;;15.60;100.00;101902.81;5115557;28;20099;-40
2023/09/26 08:35:54;;;;;;;0.10;0.10;;;;;;;15.75;100.00;101902.31;5115810;28;20074;-43
2023/09/26 08:38:20;;;;;;;0.10;0.10;;;;;;;15.95;100.00;101903.72;5114729;28;20020;-43
2023/09/26 08:40:49;;;;;;;0.10;0.10;;;;;;;16.08;100.00;101912.69;5116003;28;20034;-43
2023/09/26 08:43:21;;;;;;;0.10;0.10;;;;;;;16.12;100.00;101906.72;5115453;28;20020;-43
2023/09/26 08:45:47;;;;;;;0.10;0.10;;;;;;;16.41;100.00;101910.84;5114944;28;20076;-44
2023/09/26 08:48:13;;;;;;;0.10;0.10;;;;;;;16.58;100.00;101916.44;5115440;28;20015;-41
2023/09/26 08:50:39;;;;;;;0.10;0.10;;;;;;;16.57;100.00;101912.94;5115705;28;20498;-43
2023/09/26 08:53:04;;;;;;;0.10;0.10;;;;;;;16.65;100.00;101907.91;5114811;28;20032;-41
2023/09/26 08:55:29;;;;;;;0.10;0.10;;;;;;;16.82;100.00;101907.38;5115423;28;20548;-42
2023/09/26 08:57:55;;;;;;;0.00;0.00;;;;;;;16.85;100.00;101904.84;5115400;28;20096;-43
2023/09/26 09:00:26;;;;;;;0.00;0.00;;;;;;;17.09;100.00;101905.38;5114374;28;20092;-41
2023/09/26 09:02:51;;;;;;;0.00;0.00;;;;;;;17.17;100.00;101900.34;5115315;28;20038;-41
2023/09/26 09:05:21;;;;;;;0.10;0.10;;;;;;;17.41;100.00;101899.03;5115066;28;20106;-43
2023/09/26 09:07:47;;;;;;;0.10;0.10;;;;;;;17.57;100.00;101902.75;5114670;28;20115;-42
2023/09/26 09:10:16;;;;;;;0.10;0.10;;;;;;;17.72;100.00;101903.03;5115062;28;20072;-45
2023/09/26 09:12:44;;;;;;;0.00;0.00;;;;;;;18.21;100.00;101889.06;5115182;28;20394;-44
2023/09/26 09:15:15;;;;;;;0.10;0.10;;;;;;;18.29;100.00;101900.47;5114431;28;20022;-43
2023/09/26 09:17:41;;;;;;;0.10;0.10;;;;;;;18.59;100.00;101899.13;5114993;28;20053;-44
2023/09/26 09:20:08;;;;;;;0.10;0.10;;;;;;;18.72;96.35;101906.28;5114951;28;20366;-42
2023/09/26 09:22:33;;;;;;;0.00;0.00;;;;;;;19.16;93.70;101899.88;5113814;28;20035;-43
2023/09/26 09:25:02;;;;;;;0.00;0.00;;;;;;;19.17;90.75;101898.13;5114881;28;20081;-43
2023/09/26 09:27:38;;;;;;;0.00;0.00;;;;;;;19.18;91.54;101907.72;5113775;28;20023;-40
2023/09/26 09:30:08;;;;;;;0.10;0.10;;;;;;;19.19;90.89;101904.25;5114623;28;20081;-43
2023/09/26 09:32:36;;;;;;;0.00;0.00;;;;;;;19.22;90.59;101906.88;5114347;28;20038;-44
2023/09/26 09:35:03;;;;;;;0.00;0.00;;;;;;;19.18;88.15;101899.88;5114159;28;20375;-41
2023/09/26 09:37:28;;;;;;;0.00;0.00;;;;;;;19.29;91.98;101900.88;5114564;28;20015;-45
2023/09/26 09:39:54;;;;;;;0.00;0.00;;;;;;;19.49;91.12;101892.34;5114638;28;20031;-43
2023/09/26 09:42:19;;;;;;;0.03;0.03;;;;;;;19.86;87.71;101890.06;5113544;28;20048;-43
2023/09/26 09:44:44;;;;;;;0.00;0.00;;;;;;;19.75;86.00;101887.31;5114570;28;20430;-42
2023/09/26 09:47:16;;;;;;;0.10;0.10;;;;;;;19.70;84.73;101889.94;5114568;28;20062;-42
2023/09/26 09:49:42;;;;;;;0.00;0.00;;;;;;;20.35;84.39;101882.53;5113766;28;20030;-46
2023/09/26 09:52:10;;;;;;;0.00;0.00;;;;;;;20.39;82.01;101879.06;5114425;28;20031;-44
2023/09/26 09:54:39;;;;;;;0.00;0.00;;;;;;;20.63;83.39;101866.97;5114292;28;20106;-42
2023/09/26 09:57:10;;;;;;;0.10;0.10;;;;;;;20.65;82.94;101862.59;5113444;28;20043;-46
2023/09/26 09:59:37;;;;;;;0.00;0.00;;;;;;;20.93;79.68;101877.56;5114224;28;20034;-42
2023/09/26 10:02:04;;;;;;;0.00;0.00;;;;;;;21.68;81.45;101871.59;5114353;28;20483;-43
2023/09/26 10:04:31;;;;;;;0.00;0.00;;;;;;;21.57;76.42;101878.59;5113041;28;20421;-43
2023/09/26 10:07:00;;;;;;;0.00;0.00;;;;;;;21.40;77.72;101873.31;5114290;28;20027;-44
2023/09/26 10:09:27;;;;;;;0.00;0.00;;;;;;;21.21;74.68;101870.63;5113992;28;20114;-45
2023/09/26 10:11:54;;;;;;;0.00;0.00;;;;;;;21.30;73.06;101870.66;5113476;28;20106;-45
2023/09/26 10:14:24;;;;;;;0.00;0.00;;;;;;;20.92;75.24;101884.56;5113909;28;20084;-45
2023/09/26 10:16:50;;;;;;;0.08;0.08;;;;;;;20.88;74.28;101888.06;5113399;28;20122;-45
2023/09/26 10:19:16;;;;;;;0.10;0.10;;;;;;;20.68;74.30;101885.31;5113441;28;20103;-42
2023/09/26 10:21:41;;;;;;;0.10;0.10;;;;;;;20.53;77.01;101876.53;5113651;28;20383;-45
2023/09/26 10:24:10;;;;;;;0.00;0.00;;;;;;;20.50;78.17;101880.88;5112946;28;20024;-41
2023/09/26 10:26:51;;;;;;;0.00;0.00;;;;;;;20.52;80.71;101879.13;5113612;28;20027;-43
2023/09/26 10:29:20;;;;;;;0.00;0.00;;;;;;;20.54;75.51;101882.63;5113665;28;20032;-44
2023/09/26 10:32:05;;;;;;;0.00;0.00;;;;;;;20.42;76.08;101877.34;5112946;28;20058;-44
2023/09/26 10:34:36;;;;;;;0.00;0.00;;;;;;;20.34;74.52;101875.53;5112837;28;20028;-42
2023/09/26 10:37:06;;;;;;;0.00;0.00;;;;;;;20.44;74.78;101871.25;5113582;28;20038;-41
2023/09/26 10:39:43;;;;;;;0.00;0.00;;;;;;;20.70;76.36;101866.16;5112675;28;20134;-45
2023/09/26 10:42:09;;;;;;;0.00;0.00;;;;;;;20.95;71.98;101867.97;5113550;28;20019;-44
2023/09/26 10:44:36;;;;;;;0.00;0.00;;;;;;;20.93;74.34;101862.75;5113270;28;20031;-44
2023/09/26 10:47:05;;;;;;;0.08;0.08;;;;;;;20.93;69.17;101862.75;5112687;28;20024;-43
2023/09/26 10:49:32;;;;;;;0.00;0.00;;;;;;;20.78;69.29;101860.94;5113031;28;20047;-44
2023/09/26 10:52:01;;;;;;;0.00;0.00;;;;;;;20.98;72.25;101858.38;5112572;28;20502;-43
2023/09/26 10:54:27;;;;;;;0.00;0.00;;;;;;;20.97;68.97;101858.38;5113293;28;20024;-44
2023/09/26 10:56:52;;;;;;;0.00;0.00;;;;;;;21.05;71.90;101870.59;5113205;28;20343;-46
2023/09/26 10:59:18;;;;;;;0.00;0.00;;;;;;;21.37;70.80;101877.66;5112251;28;20026;-42
2023/09/26 11:01:45;;;;;;;0.00;0.00;;;;;;;21.59;66.43;101874.19;5113226;28;20054;-42
2023/09/26 11:04:11;;;;;;;0.00;0.00;;;;;;;21.57;68.43;101853.22;5113188;28;20052;-46
2023/09/26 11:06:37;;;;;;;0.00;0.00;;;;;;;21.63;67.98;101852.38;5112426;28;20304;-45
2023/09/26 11:09:03;;;;;;;0.00;0.00;;;;;;;21.87;70.24;101861.94;5113315;28;20088;-44
2023/09/26 11:11:29;;;;;;;0.00;0.00;;;;;;;22.11;61.91;101861.03;5112732;28;20031;-44
2023/09/26 11:13:55;;;;;;;0.00;0.00;;;;;;;22.08;64.79;101874.19;5112394;28;20498;-46
2023/09/26 11:16:20;;;;;;;0.00;0.00;;;;;;;22.07;66.78;101876.81;5112881;28;20463;-46